createdAt,value
2018-10-02T00:00:22.719Z,85.90
2018-10-02T00:02:51.379Z,86.43
2018-10-02T00:05:20.057Z,87.03
2018-10-02T00:07:48.714Z,86.87
2018-10-02T00:10:19.780Z,87.05
2018-10-02T00:12:53.811Z,86.97
2018-10-02T00:15:23.097Z,86.69
2018-10-02T00:17:53.239Z,86.14
2018-10-02T00:20:22.869Z,86.31
2018-10-02T00:22:51.499Z,86.70
2018-10-02T00:25:23.641Z,87.45
2018-10-02T00:27:52.852Z,87.11
2018-10-02T00:30:22.615Z,86.81
2018-10-02T00:32:55.357Z,86.49
2018-10-02T00:35:24.165Z,86.41
2018-10-02T00:37:53.982Z,85.75
2018-10-02T00:40:22.624Z,86.08
2018-10-02T00:42:53.970Z,85.79
2018-10-02T00:45:24.783Z,85.77
2018-10-02T00:47:53.433Z,86.16
2018-10-02T00:50:22.088Z,85.85
2018-10-02T00:52:50.877Z,85.30
2018-10-02T00:55:19.595Z,85.43
2018-10-02T00:57:48.653Z,85.38
2018-10-02T01:00:18.978Z,85.38
2018-10-02T01:02:47.729Z,85.65
2018-10-02T01:05:17.420Z,85.56
2018-10-02T01:07:46.943Z,86.21
2018-10-02T01:10:17.367Z,86.14
2018-10-02T01:12:47.541Z,86.43
2018-10-02T01:15:17.381Z,85.93
2018-10-02T01:17:46.255Z,85.89
2018-10-02T01:20:17.368Z,85.71
2018-10-02T01:22:46.120Z,86.51
2018-10-02T01:25:17.196Z,86.62
2018-10-02T01:27:45.871Z,86.17
2018-10-02T01:30:16.871Z,86.33
2018-10-02T01:32:45.532Z,87.14
2018-10-02T01:35:15.825Z,87.30
2018-10-02T01:37:45.452Z,87.49
2018-10-02T01:40:14.151Z,87.18
2018-10-02T01:42:42.825Z,87.04
2018-10-02T01:45:13.903Z,87.17
2018-10-02T01:47:42.861Z,87.06
2018-10-02T01:50:11.647Z,86.85
2018-10-02T01:52:41.307Z,87.27
2018-10-02T01:55:10.057Z,87.61
2018-10-02T01:57:38.721Z,88.22
2018-10-02T02:00:07.638Z,88.30
2018-10-02T02:02:36.656Z,88.10
2018-10-02T02:05:08.304Z,88.07
2018-10-02T02:07:37.204Z,87.85
2018-10-02T02:10:06.211Z,88.06
2018-10-02T02:12:35.225Z,88.31
2018-10-02T02:15:05.410Z,87.77
2018-10-02T02:17:36.575Z,88.23
2018-10-02T02:20:06.228Z,88.36
2018-10-02T02:22:35.009Z,88.11
2018-10-02T02:25:05.786Z,87.95
2018-10-02T02:27:34.638Z,88.38
2018-10-02T02:30:04.857Z,88.59
2018-10-02T02:32:33.614Z,88.59
2018-10-02T02:35:03.025Z,88.44
2018-10-02T02:37:34.049Z,88.71
2018-10-02T02:40:02.929Z,88.44
2018-10-02T02:42:31.689Z,87.85
2018-10-02T02:45:00.424Z,88.61
2018-10-02T02:47:35.881Z,88.65
2018-10-02T02:50:10.729Z,88.18
2018-10-02T02:52:43.532Z,87.56
2018-10-02T02:55:12.446Z,87.37
2018-10-02T02:57:41.181Z,87.81
2018-10-02T03:00:12.722Z,87.36
2018-10-02T03:02:41.339Z,87.93
2018-10-02T03:05:16.182Z,87.30
2018-10-02T03:07:45.318Z,88.04
2018-10-02T03:10:16.932Z,88.39
2018-10-02T03:12:45.806Z,88.72
2018-10-02T03:15:21.089Z,88.10
2018-10-02T03:17:50.348Z,88.69
2018-10-02T03:20:20.552Z,88.97
2018-10-02T03:22:52.945Z,88.75
2018-10-02T03:25:22.184Z,88.59
2018-10-02T03:27:52.840Z,88.47
2018-10-02T03:30:21.503Z,88.26
2018-10-02T03:35:32.397Z,88.19
2018-10-02T03:38:01.121Z,88.52
2018-10-02T03:40:32.328Z,88.04
2018-10-02T03:43:00.972Z,87.96
2018-10-02T03:45:32.337Z,87.99
2018-10-02T03:48:01.046Z,88.19
2018-10-02T03:50:30.517Z,88.34
2018-10-02T03:52:59.944Z,87.73
2018-10-02T03:55:32.827Z,87.40
2018-10-02T03:58:02.601Z,87.52
2018-10-02T04:00:31.249Z,87.07
2018-10-02T04:03:02.482Z,87.34
2018-10-02T04:05:31.138Z,87.34
2018-10-02T04:07:59.800Z,87.31
2018-10-02T04:10:30.542Z,87.43
2018-10-02T04:12:59.281Z,87.41
2018-10-02T04:15:27.931Z,87.03
2018-10-02T04:17:56.582Z,87.08
2018-10-02T04:20:27.340Z,86.95
2018-10-02T04:22:56.601Z,87.17
2018-10-02T04:25:25.397Z,87.03
2018-10-02T04:27:54.521Z,86.98
2018-10-02T04:30:26.357Z,87.02
2018-10-02T04:32:55.095Z,86.36
2018-10-02T04:35:23.857Z,86.89
2018-10-02T04:37:54.845Z,86.56
2018-10-02T04:40:23.703Z,86.37
2018-10-02T04:42:52.495Z,86.46
2018-10-02T04:45:21.188Z,86.42
2018-10-02T04:47:52.815Z,86.66
2018-10-02T04:50:22.024Z,86.27
2018-10-02T04:52:53.991Z,86.11
2018-10-02T04:55:22.902Z,86.01
2018-10-02T04:57:51.641Z,86.21
2018-10-02T05:00:20.428Z,86.20
2018-10-02T05:02:49.386Z,85.79
2018-10-02T05:05:19.408Z,85.06
2018-10-02T05:07:48.103Z,84.93
2018-10-02T05:10:18.145Z,85.02
2018-10-02T05:12:46.816Z,84.85
2018-10-02T05:15:15.511Z,84.72
2018-10-02T05:17:44.239Z,84.88
2018-10-02T05:20:12.932Z,84.80
2018-10-02T05:22:41.639Z,85.43
2018-10-02T05:25:10.348Z,84.88
2018-10-02T05:27:42.222Z,85.04
2018-10-02T05:30:11.036Z,85.24
2018-10-02T05:32:39.747Z,85.06
2018-10-02T05:35:09.113Z,84.82
2018-10-02T05:37:38.323Z,85.16
2018-10-02T05:40:07.673Z,84.66
2018-10-02T05:42:37.036Z,85.31
2018-10-02T05:45:08.104Z,85.24
2018-10-02T05:47:38.985Z,85.40
2018-10-02T05:50:07.665Z,85.11
2018-10-02T05:52:38.938Z,85.28
2018-10-02T05:55:07.592Z,85.33
2018-10-02T05:57:39.507Z,84.62
2018-10-02T06:00:08.710Z,84.62
2018-10-02T06:02:41.516Z,84.96
2018-10-02T06:05:10.201Z,84.86
2018-10-02T06:07:41.413Z,85.24
2018-10-02T06:10:10.511Z,84.41
2018-10-02T06:12:39.314Z,84.09
2018-10-02T06:15:10.897Z,83.85
2018-10-02T06:17:39.581Z,83.82
2018-10-02T06:20:10.112Z,82.90
2018-10-02T06:22:38.817Z,83.15
2018-10-02T06:25:12.907Z,83.57
2018-10-02T06:27:43.129Z,84.06
2018-10-02T06:30:12.996Z,83.37
2018-10-02T06:32:41.907Z,83.87
2018-10-02T06:35:10.801Z,83.26
2018-10-02T06:37:40.826Z,83.77
2018-10-02T06:40:10.174Z,83.64
2018-10-02T06:42:39.695Z,83.78
2018-10-02T06:45:11.769Z,82.70
2018-10-02T06:47:40.793Z,83.05
2018-10-02T06:50:09.752Z,82.64
2018-10-02T06:52:38.706Z,82.59
2018-10-02T06:55:08.512Z,81.77
2018-10-02T06:57:37.446Z,82.35
2018-10-02T07:00:06.632Z,82.26
2018-10-02T07:02:37.301Z,82.67
2018-10-02T07:05:08.760Z,82.37
2018-10-02T07:07:37.454Z,82.23
2018-10-02T07:10:08.596Z,82.33
2018-10-02T07:12:37.759Z,82.19
2018-10-02T07:15:06.386Z,83.51
2018-10-02T07:17:37.206Z,82.54
2018-10-02T07:20:06.742Z,82.04
2018-10-02T07:22:35.757Z,81.76
2018-10-02T07:25:04.406Z,81.62
2018-10-02T07:27:36.161Z,81.92
2018-10-02T07:30:05.242Z,81.27
2018-10-02T07:32:34.013Z,81.86
2018-10-02T07:35:02.587Z,81.12
2018-10-02T07:37:31.194Z,82.25
2018-10-02T07:39:59.903Z,82.13
2018-10-02T07:42:29.828Z,82.60
2018-10-02T07:44:58.813Z,83.25
2018-10-02T07:47:27.519Z,83.24
2018-10-02T07:49:56.154Z,82.99
2018-10-02T07:52:24.880Z,82.95
2018-10-02T07:54:54.635Z,82.58
2018-10-02T07:57:23.304Z,83.35
2018-10-02T07:59:53.895Z,83.28
2018-10-02T08:02:22.623Z,83.37
2018-10-02T08:04:53.856Z,82.89
2018-10-02T08:07:22.464Z,83.19
2018-10-02T08:09:52.676Z,83.50
2018-10-02T08:12:23.082Z,83.37
2018-10-02T08:14:54.003Z,84.34
2018-10-02T08:17:23.300Z,83.82
2018-10-02T08:19:52.104Z,83.54
2018-10-02T08:22:20.725Z,84.24
2018-10-02T08:24:50.871Z,84.11
2018-10-02T08:27:19.596Z,83.32
2018-10-02T08:29:48.160Z,83.58
2018-10-02T08:32:16.773Z,83.94
2018-10-02T08:34:45.380Z,83.18
2018-10-02T08:37:15.237Z,83.63
2018-10-02T08:39:45.024Z,84.00
2018-10-02T08:42:14.537Z,83.12
2018-10-02T08:44:43.269Z,82.72
2018-10-02T08:47:16.156Z,82.88
2018-10-02T08:49:45.856Z,82.52
2018-10-02T08:52:14.667Z,82.35
2018-10-02T08:54:43.249Z,82.72
2018-10-02T08:57:12.639Z,82.93
2018-10-02T08:59:41.295Z,83.03
2018-10-02T09:02:09.948Z,82.08
2018-10-02T09:04:38.811Z,82.38
2018-10-02T09:07:09.756Z,83.26
2018-10-02T09:09:38.436Z,83.21
2018-10-02T09:12:09.704Z,82.90
2018-10-02T09:14:38.651Z,82.21
2018-10-02T09:17:07.499Z,83.04
2018-10-02T09:19:36.969Z,82.28
2018-10-02T09:22:05.708Z,83.44
2018-10-02T09:24:34.364Z,83.37
2018-10-02T09:27:02.983Z,82.54
2018-10-02T09:29:31.628Z,82.95
2018-10-02T09:32:05.886Z,83.34
2018-10-02T09:34:40.829Z,83.25
2018-10-02T09:41:32.699Z,82.85
2018-10-02T09:44:02.766Z,82.87
2018-10-02T09:46:31.923Z,81.86
2018-10-02T09:49:01.007Z,81.44
2018-10-02T09:51:29.590Z,82.18
2018-10-02T09:53:58.206Z,81.57
2018-10-02T09:56:33.754Z,81.78
2018-10-02T09:59:02.373Z,81.54
2018-10-02T10:01:37.092Z,82.05
2018-10-02T10:04:06.792Z,81.61
2018-10-02T10:06:35.544Z,82.02
2018-10-02T10:09:05.345Z,82.80
2018-10-02T10:11:34.523Z,83.02
2018-10-02T10:14:03.677Z,83.02
2018-10-02T10:16:33.130Z,83.34
2018-10-02T10:19:02.924Z,84.16
2018-10-02T10:21:31.767Z,83.65
2018-10-02T10:24:00.626Z,83.68
2018-10-02T10:26:29.304Z,84.44
2018-10-02T10:28:59.288Z,84.53
2018-10-02T10:31:28.026Z,85.03
2018-10-02T10:33:59.349Z,85.58
2018-10-02T10:36:27.948Z,86.14
2018-10-02T10:39:00.776Z,86.26
2018-10-02T10:41:29.639Z,86.07
2018-10-02T10:43:58.871Z,85.95
2018-10-02T10:46:27.533Z,85.54
2018-10-02T10:48:56.159Z,85.50
2018-10-02T10:51:24.826Z,85.52
2018-10-02T10:53:55.682Z,85.46
2018-10-02T10:56:24.494Z,85.35
2018-10-02T10:58:53.573Z,85.22
2018-10-02T11:01:22.172Z,84.89
2018-10-02T11:03:50.864Z,85.57
2018-10-02T11:06:19.491Z,85.89
2018-10-02T11:08:49.740Z,85.56
2018-10-02T11:11:19.509Z,85.85
2018-10-02T11:13:48.150Z,87.13
2018-10-02T11:16:16.802Z,89.14
2018-10-02T11:18:45.489Z,89.82
2018-10-02T11:21:16.123Z,90.23
2018-10-02T11:23:45.676Z,90.32
2018-10-02T11:26:14.367Z,91.48
2018-10-02T11:28:43.068Z,92.13
2018-10-02T11:31:11.772Z,92.20
2018-10-02T11:33:41.989Z,91.84
2018-10-02T11:36:10.622Z,91.52
2018-10-02T11:38:39.306Z,92.00
2018-10-02T11:41:07.960Z,91.84
2018-10-02T11:43:37.586Z,92.22
2018-10-02T11:46:06.997Z,91.87
2018-10-02T11:48:35.640Z,91.98
2018-10-02T11:51:07.866Z,92.19
2018-10-02T11:53:37.300Z,91.64
2018-10-02T11:56:10.296Z,91.63
2018-10-02T11:58:38.964Z,91.64
2018-10-02T12:01:07.936Z,91.64
2018-10-02T12:03:37.719Z,91.68
2018-10-02T12:06:06.503Z,92.06
2018-10-02T12:08:35.150Z,92.29
2018-10-02T12:11:05.911Z,92.15
2018-10-02T12:13:35.078Z,92.48
2018-10-02T12:16:03.824Z,92.82
2018-10-02T12:18:34.927Z,92.71
2018-10-02T12:21:03.931Z,92.79
2018-10-02T12:23:33.954Z,92.64
2018-10-02T12:26:03.734Z,92.35
2018-10-02T12:28:32.434Z,91.73
2018-10-02T12:31:05.320Z,92.39
2018-10-02T12:33:34.063Z,91.75
2018-10-02T12:36:03.481Z,92.03
2018-10-02T12:38:33.185Z,91.71
2018-10-02T12:41:03.903Z,91.21
2018-10-02T12:43:33.678Z,91.67
2018-10-02T12:46:05.272Z,91.78
2018-10-02T12:48:36.677Z,92.09
2018-10-02T12:51:05.433Z,93.33
2018-10-02T12:53:38.769Z,94.28
2018-10-02T12:56:07.613Z,93.87
2018-10-02T12:58:36.800Z,94.87
2018-10-02T13:01:07.339Z,94.51
2018-10-02T13:03:37.042Z,94.93
2018-10-02T13:06:07.723Z,94.51
2018-10-02T13:08:37.523Z,94.42
2018-10-02T13:11:06.296Z,94.93
2018-10-02T13:13:35.186Z,94.88
2018-10-02T13:16:03.929Z,94.96
2018-10-02T13:18:35.106Z,95.19
2018-10-02T13:21:04.512Z,95.12
2018-10-02T13:23:33.192Z,95.30
2018-10-02T13:26:03.440Z,94.63
2018-10-02T13:28:32.229Z,94.81
2018-10-02T13:31:02.116Z,94.50
2018-10-02T13:33:31.883Z,94.38
2018-10-02T13:36:01.337Z,94.54
2018-10-02T13:38:34.243Z,94.22
2018-10-02T13:41:03.097Z,93.78
2018-10-02T13:43:32.018Z,93.84
2018-10-02T13:46:01.720Z,93.85
2018-10-02T13:48:31.582Z,93.95
2018-10-02T13:51:00.475Z,93.68
2018-10-02T13:53:29.603Z,93.57
2018-10-02T13:55:58.935Z,93.84
2018-10-02T13:58:27.978Z,93.29
2018-10-02T14:00:58.956Z,92.99
2018-10-02T14:03:27.819Z,93.42
2018-10-02T14:05:58.696Z,93.58
2018-10-02T14:08:28.082Z,93.45
2018-10-02T14:11:00.592Z,93.31
2018-10-02T14:13:29.636Z,92.81
2018-10-02T14:15:58.360Z,92.77
2018-10-02T14:18:29.364Z,93.02
2018-10-02T14:21:00.153Z,93.30
2018-10-02T14:23:28.772Z,92.80
2018-10-02T14:25:57.735Z,92.52
2018-10-02T14:28:27.083Z,92.38
2018-10-02T14:30:57.565Z,92.62
2018-10-02T14:33:27.940Z,92.25
2018-10-02T14:35:56.655Z,92.61
2018-10-02T14:38:25.489Z,92.95
2018-10-02T14:40:54.216Z,92.58
2018-10-02T14:43:23.770Z,92.06
2018-10-02T14:45:53.967Z,92.40
2018-10-02T14:48:22.746Z,92.26
2018-10-02T14:50:52.630Z,92.45
2018-10-02T14:53:22.347Z,92.47
2018-10-02T14:55:53.455Z,91.22
2018-10-02T14:58:22.188Z,91.71
2018-10-02T15:00:51.221Z,92.06
2018-10-02T15:03:20.217Z,91.78
2018-10-02T15:05:51.637Z,92.03
2018-10-02T15:08:21.425Z,91.62
2018-10-02T15:10:52.690Z,92.19
2018-10-02T15:13:21.636Z,92.19
2018-10-02T15:15:50.448Z,92.19
2018-10-02T15:18:19.314Z,92.15
2018-10-02T15:20:47.991Z,91.70
2018-10-02T15:23:19.168Z,91.43
2018-10-02T15:25:47.889Z,91.25
2018-10-02T15:28:16.755Z,91.05
2018-10-02T15:30:49.258Z,90.99
2018-10-02T15:33:18.296Z,90.10
2018-10-02T15:35:46.982Z,90.39
2018-10-02T15:38:20.367Z,90.39
2018-10-02T15:40:49.836Z,90.04
2018-10-02T15:43:18.584Z,89.84
2018-10-02T15:45:47.238Z,90.20
2018-10-02T15:48:16.156Z,89.81
2018-10-02T15:50:45.153Z,90.06
2018-10-02T15:53:15.497Z,89.87
2018-10-02T15:55:44.491Z,89.50
2018-10-02T15:58:15.786Z,89.81
2018-10-02T16:00:44.892Z,89.84
2018-10-02T16:03:13.580Z,89.97
2018-10-02T16:05:42.336Z,89.81
2018-10-02T16:08:12.241Z,89.15
2018-10-02T16:10:41.233Z,88.86
2018-10-02T16:13:10.140Z,88.33
2018-10-02T16:15:42.744Z,88.73
2018-10-02T16:18:14.472Z,88.51
2018-10-02T16:20:43.132Z,88.68
2018-10-02T16:23:12.056Z,88.95
2018-10-02T16:25:42.414Z,88.68
2018-10-02T16:28:11.047Z,88.30
2018-10-02T16:30:41.536Z,88.14
2018-10-02T16:33:10.899Z,88.30
2018-10-02T16:35:42.164Z,88.82
2018-10-02T16:38:12.900Z,88.90
2018-10-02T16:40:43.038Z,88.97
2018-10-02T16:43:12.572Z,89.02
2018-10-02T16:45:43.351Z,88.71
2018-10-02T16:48:12.443Z,88.17
2018-10-02T16:50:41.153Z,88.10
2018-10-02T16:53:12.932Z,88.02
2018-10-02T16:55:42.664Z,88.03
2018-10-02T16:58:11.744Z,87.58
2018-10-02T17:00:40.453Z,87.03
2018-10-02T17:03:09.131Z,86.82
2018-10-02T17:05:38.267Z,85.81
2018-10-02T17:08:06.924Z,83.93
2018-10-02T17:10:36.713Z,81.28
2018-10-02T17:13:08.251Z,79.87
2018-10-02T17:15:38.357Z,76.71
2018-10-02T17:18:07.200Z,75.30
2018-10-02T17:20:35.890Z,74.56
2018-10-02T17:23:05.963Z,74.02
2018-10-02T17:25:36.493Z,72.51
2018-10-02T17:28:06.929Z,73.98
2018-10-02T17:30:36.538Z,76.15
2018-10-02T17:33:05.955Z,79.31
2018-10-02T17:35:35.549Z,81.31
2018-10-02T17:38:04.283Z,81.57
2018-10-02T17:40:34.853Z,82.38
2018-10-02T17:43:03.613Z,82.99
2018-10-02T17:45:34.268Z,82.77
2018-10-02T17:48:03.558Z,82.30
2018-10-02T17:50:32.405Z,82.05
2018-10-02T17:53:01.179Z,81.85
2018-10-02T17:55:29.860Z,81.02
2018-10-02T17:58:01.025Z,79.95
2018-10-02T18:00:33.977Z,80.23
2018-10-02T18:03:02.723Z,79.40
2018-10-02T18:05:31.460Z,77.74
2018-10-02T18:08:00.113Z,78.10
2018-10-02T18:10:29.569Z,78.32
2018-10-02T18:12:59.091Z,78.21
2018-10-02T18:15:29.754Z,77.14
2018-10-02T18:17:59.224Z,77.00
2018-10-02T18:20:27.945Z,76.55
2018-10-02T18:22:56.712Z,76.29
2018-10-02T18:25:25.420Z,75.97
2018-10-02T18:27:54.163Z,75.63
2018-10-02T18:30:24.881Z,75.01
2018-10-02T18:32:56.401Z,75.39
2018-10-02T18:35:25.090Z,74.52
2018-10-02T18:37:55.280Z,74.43
2018-10-02T18:40:28.216Z,73.98
2018-10-02T18:42:57.011Z,73.72
2018-10-02T18:45:25.664Z,73.67
2018-10-02T18:47:54.788Z,73.92
2018-10-02T18:50:24.472Z,72.85
2018-10-02T18:52:53.284Z,72.82
2018-10-02T18:55:26.213Z,72.43
2018-10-02T18:57:55.783Z,72.40
2018-10-02T19:00:24.581Z,72.52
2018-10-02T19:02:58.471Z,72.55
2018-10-02T19:05:28.076Z,72.36
2018-10-02T19:07:58.531Z,72.14
2018-10-02T19:10:27.273Z,72.43
2018-10-02T19:12:56.608Z,72.92
2018-10-02T19:15:25.471Z,74.14
2018-10-02T19:17:54.227Z,73.70
2018-10-02T19:20:28.824Z,72.51
2018-10-02T19:22:57.612Z,72.98
2018-10-02T19:25:31.655Z,74.22
2018-10-02T19:28:00.603Z,75.15
2018-10-02T19:30:34.703Z,77.49
2018-10-02T19:33:03.406Z,78.58
2018-10-02T19:35:32.160Z,79.46
2018-10-02T19:39:11.008Z,78.39
2018-10-02T19:41:39.666Z,78.50
2018-10-02T19:44:09.439Z,77.85
2018-10-02T19:46:40.321Z,77.42
2018-10-02T19:49:09.772Z,78.10
2018-10-02T19:51:43.811Z,78.26
2018-10-02T19:54:12.507Z,76.71
2018-10-02T19:56:43.737Z,76.39
2018-10-02T19:59:12.873Z,77.52
2018-10-02T20:01:41.616Z,76.48
2018-10-02T20:04:10.981Z,77.27
2018-10-02T20:06:40.947Z,77.61
2018-10-02T20:09:10.116Z,77.42
2018-10-02T20:11:40.548Z,77.84
2018-10-02T20:14:10.366Z,77.27
2018-10-02T20:16:39.493Z,78.19
2018-10-02T20:19:08.915Z,78.08
2018-10-02T20:21:38.581Z,78.22
2018-10-02T20:24:08.029Z,77.46
2018-10-02T20:26:37.782Z,76.83
2018-10-02T20:29:08.188Z,76.80
2018-10-02T20:31:43.479Z,77.03
2018-10-02T20:34:12.579Z,76.95
2018-10-02T20:36:42.331Z,76.79
2018-10-02T20:39:11.793Z,76.29
2018-10-02T20:41:40.468Z,75.81
2018-10-02T20:44:09.683Z,75.26
2018-10-02T20:46:38.381Z,75.38
2018-10-02T20:49:08.561Z,75.13
2018-10-02T20:51:37.507Z,74.46
2018-10-02T20:54:06.260Z,74.14
2018-10-02T20:56:35.020Z,74.32
2018-10-02T20:59:05.858Z,74.43
2018-10-02T21:01:34.588Z,73.66
2018-10-02T21:04:03.566Z,74.75
2018-10-02T21:06:32.977Z,74.01
2018-10-02T21:09:01.664Z,73.72
2018-10-02T21:11:32.720Z,73.65
2018-10-02T21:14:01.516Z,72.67
2018-10-02T21:16:31.573Z,71.75
2018-10-02T21:19:00.522Z,71.48
2018-10-02T21:21:29.486Z,71.24
2018-10-02T21:23:58.619Z,71.69
2018-10-02T21:26:32.580Z,71.64
2018-10-02T21:29:02.231Z,71.68
2018-10-02T21:31:32.344Z,71.77
2018-10-02T21:34:00.979Z,72.46
2018-10-02T21:36:31.329Z,72.88
2018-10-02T21:39:00.086Z,73.27
2018-10-02T21:41:30.446Z,73.69
2018-10-02T21:43:59.584Z,74.33
2018-10-02T21:46:28.325Z,74.50
2018-10-02T21:49:00.936Z,74.76
2018-10-02T21:51:31.140Z,76.19
2018-10-02T21:54:00.620Z,73.63
2018-10-02T21:56:30.531Z,73.27
2018-10-02T21:58:59.196Z,73.40
2018-10-02T22:01:33.057Z,72.40
2018-10-02T22:04:02.616Z,72.37
2018-10-02T22:06:32.254Z,71.75
2018-10-02T22:09:01.833Z,71.22
2018-10-02T22:11:30.580Z,71.31
2018-10-02T22:13:59.258Z,70.90
2018-10-02T22:16:28.022Z,70.69
2018-10-02T22:18:57.694Z,71.00
2018-10-02T22:21:26.678Z,70.53
2018-10-02T22:23:55.445Z,70.90
2018-10-02T22:26:24.126Z,70.67
2018-10-02T22:28:53.922Z,70.87
2018-10-02T22:31:23.117Z,70.92
2018-10-02T22:33:52.396Z,71.96
2018-10-02T22:36:22.029Z,71.11
2018-10-02T22:38:50.904Z,70.98
2018-10-02T22:41:21.046Z,71.30
2018-10-02T22:43:52.064Z,70.60
2018-10-02T22:46:20.815Z,71.08
2018-10-02T22:48:49.559Z,71.52
2018-10-02T22:51:18.788Z,72.17
2018-10-02T22:53:47.439Z,72.01
2018-10-02T22:56:18.027Z,71.94
2018-10-02T22:58:47.066Z,72.27
2018-10-02T23:01:15.898Z,72.55
2018-10-02T23:03:45.913Z,72.42
2018-10-02T23:06:14.789Z,72.42
2018-10-02T23:08:46.949Z,72.80
2018-10-02T23:11:15.891Z,72.99
2018-10-02T23:13:44.950Z,73.42
2018-10-02T23:16:14.380Z,73.70
2018-10-02T23:18:44.585Z,73.85
2018-10-02T23:21:13.464Z,74.10
2018-10-02T23:23:42.607Z,74.51
2018-10-02T23:26:12.736Z,74.91
2018-10-02T23:28:41.443Z,75.03
2018-10-02T23:31:10.136Z,74.65
2018-10-02T23:33:40.075Z,74.74
2018-10-02T23:36:08.848Z,74.91
2018-10-02T23:38:37.627Z,75.04
2018-10-02T23:41:08.515Z,75.54
2018-10-02T23:43:37.734Z,75.59
2018-10-02T23:46:06.853Z,75.83
2018-10-02T23:48:35.612Z,76.10
2018-10-02T23:51:04.359Z,76.10
2018-10-02T23:53:33.029Z,76.32
2018-10-02T23:56:06.132Z,76.06
2018-10-02T23:58:34.829Z,75.87
